TimePDT,TemperatureF,Dew PointF,Humidity,Sea Level PressureIn,VisibilityMPH,Wind Direction,Wind SpeedMPH,Gust SpeedMPH,PrecipitationIn,Events,Conditions,WindDirDegrees,DateUTC
12:15 AM,50.0,50.0,100,30.06,0.2,WSW,3.5,-,N/A,,Drizzle,250,2013-08-07 07:15:00
12:35 AM,50.0,50.0,100,30.06,0.5,WNW,5.8,-,N/A,Fog,Fog,300,2013-08-07 07:35:00
12:55 AM,50.0,50.0,100,30.05,0.5,WNW,5.8,-,N/A,Fog,Fog,300,2013-08-07 07:55:00
1:15 AM,50.0,50.0,100,30.06,0.5,Calm,Calm,-,N/A,Fog,Fog,0,2013-08-07 08:15:00
1:35 AM,50.0,50.0,100,30.05,0.5,Calm,Calm,-,N/A,Fog,Fog,0,2013-08-07 08:35:00
1:55 AM,50.0,50.0,100,30.05,0.5,Calm,Calm,-,N/A,Fog,Fog,0,2013-08-07 08:55:00
2:15 AM,50.0,50.0,100,30.05,0.5,Calm,Calm,-,N/A,Fog,Fog,0,2013-08-07 09:15:00
2:35 AM,50.0,50.0,100,30.05,0.5,Calm,Calm,-,N/A,Fog,Fog,0,2013-08-07 09:35:00
2:55 AM,50.0,50.0,100,30.05,0.5,Calm,Calm,-,N/A,Fog,Fog,0,2013-08-07 09:55:00
3:15 AM,50.0,50.0,100,30.05,0.5,Calm,Calm,-,N/A,Fog,Fog,0,2013-08-07 10:15:00
3:35 AM,50.0,50.0,100,30.05,0.8,Calm,Calm,-,N/A,,Overcast,0,2013-08-07 10:35:00
3:55 AM,50.0,50.0,100,30.06,0.5,Calm,Calm,-,N/A,Fog,Fog,0,2013-08-07 10:55:00
4:15 AM,50.0,50.0,100,30.08,0.5,SSW,3.5,-,N/A,Fog,Fog,210,2013-08-07 11:15:00
4:35 AM,50.0,50.0,100,30.09,1.0,SSW,3.5,-,N/A,,Overcast,200,2013-08-07 11:35:00
4:55 AM,50.0,50.0,100,30.07,1.5,Calm,Calm,-,N/A,,Overcast,0,2013-08-07 11:55:00
5:15 AM,50.0,50.0,100,30.08,1.5,Calm,Calm,-,N/A,,Overcast,0,2013-08-07 12:15:00
5:35 AM,51.8,51.8,100,30.08,2.0,Calm,Calm,-,N/A,,Overcast,0,2013-08-07 12:35:00
5:55 AM,51.8,51.8,100,30.08,1.8,Calm,Calm,-,N/A,,Overcast,0,2013-08-07 12:55:00
6:15 AM,51.8,51.8,100,30.09,2.0,Calm,Calm,-,N/A,,Overcast,0,2013-08-07 13:15:00
6:35 AM,51.8,51.8,100,30.09,2.0,Calm,Calm,-,N/A,,Overcast,0,2013-08-07 13:35:00
6:55 AM,51.8,51.8,100,30.09,1.2,Calm,Calm,-,N/A,,Overcast,0,2013-08-07 13:55:00
7:15 AM,51.8,51.8,100,30.09,2.5,NE,3.5,-,N/A,,Overcast,40,2013-08-07 14:15:00
7:35 AM,51.8,51.8,100,30.08,0.8,NNW,3.5,-,N/A,,Overcast,340,2013-08-07 14:35:00
7:55 AM,51.8,50.0,94,30.08,0.2,Calm,Calm,-,N/A,Fog,Fog,0,2013-08-07 14:55:00
8:15 AM,51.8,51.8,100,30.07,0.5,NNW,3.5,-,N/A,Fog,Fog,340,2013-08-07 15:15:00
8:35 AM,51.8,51.8,100,30.08,0.2,NNW,4.6,-,N/A,Fog,Fog,340,2013-08-07 15:35:00
8:55 AM,51.8,51.8,100,30.08,0.5,North,4.6,-,N/A,Fog,Fog,360,2013-08-07 15:55:00
9:15 AM,51.8,50.0,94,30.07,0.2,North,3.5,-,N/A,Fog,Fog,360,2013-08-07 16:15:00
9:35 AM,51.8,51.8,100,30.07,0.5,NNW,4.6,-,N/A,Fog,Fog,330,2013-08-07 16:35:00
9:55 AM,51.8,51.8,100,30.08,0.2,NNW,3.5,-,N/A,Fog,Fog,330,2013-08-07 16:55:00
10:15 AM,51.8,51.8,100,30.08,4.0,NNW,6.9,-,N/A,,Overcast,330,2013-08-07 17:15:00
10:35 AM,53.6,53.6,100,30.09,7.0,NNW,5.8,-,N/A,,Overcast,340,2013-08-07 17:35:00
10:55 AM,53.6,53.6,100,30.10,10.0,NW,4.6,-,N/A,,Mostly Cloudy,310,2013-08-07 17:55:00
11:15 AM,51.8,51.8,100,30.10,5.0,West,4.6,-,N/A,,Mostly Cloudy,280,2013-08-07 18:15:00
11:35 AM,51.8,51.8,100,30.10,2.5,WSW,3.5,-,N/A,,Overcast,250,2013-08-07 18:35:00
11:55 AM,51.8,51.8,100,30.10,10.0,Calm,Calm,-,N/A,,Overcast,0,2013-08-07 18:55:00
12:15 PM,51.8,51.8,100,30.10,10.0,Calm,Calm,-,N/A,,Overcast,0,2013-08-07 19:15:00
12:35 PM,51.8,51.8,100,30.08,10.0,West,6.9,-,N/A,,Overcast,270,2013-08-07 19:35:00
12:55 PM,51.8,51.8,100,30.09,10.0,Calm,Calm,-,N/A,,Overcast,0,2013-08-07 19:55:00
1:15 PM,51.8,51.8,100,30.11,10.0,Calm,Calm,-,N/A,,Overcast,0,2013-08-07 20:15:00
1:35 PM,53.6,51.8,94,30.11,10.0,WSW,8.1,-,N/A,,Overcast,240,2013-08-07 20:35:00
1:55 PM,51.8,51.8,100,30.13,10.0,SW,8.1,-,N/A,,Overcast,230,2013-08-07 20:55:00
2:15 PM,53.6,51.8,94,30.14,10.0,SW,8.1,-,N/A,,Overcast,230,2013-08-07 21:15:00
2:35 PM,51.8,51.8,100,30.13,10.0,WSW,5.8,-,N/A,,Mostly Cloudy,250,2013-08-07 21:35:00
2:55 PM,51.8,51.8,100,30.14,3.0,WSW,4.6,-,N/A,,Overcast,250,2013-08-07 21:55:00
3:15 PM,51.8,50.0,94,30.12,0.5,West,4.6,-,N/A,Fog,Fog,270,2013-08-07 22:15:00
3:35 PM,51.8,51.8,100,30.13,0.5,WSW,4.6,-,N/A,Fog,Fog,240,2013-08-07 22:35:00
3:55 PM,51.8,51.8,100,30.13,0.8,SW,6.9,-,N/A,,Overcast,220,2013-08-07 22:55:00
4:15 PM,51.8,51.8,100,30.13,0.8,SW,5.8,-,N/A,,Overcast,220,2013-08-07 23:15:00
4:35 PM,51.8,51.8,100,30.12,1.0,SSW,5.8,-,N/A,,Overcast,200,2013-08-07 23:35:00
4:55 PM,53.6,51.8,94,30.12,5.0,SW,3.5,-,N/A,,Overcast,230,2013-08-07 23:55:00
5:15 PM,53.6,51.8,94,30.12,7.0,South,5.8,-,N/A,,Overcast,190,2013-08-08 00:15:00
5:35 PM,53.6,51.8,94,30.12,3.0,South,4.6,-,N/A,,Overcast,180,2013-08-08 00:35:00
5:55 PM,53.6,51.8,94,30.12,2.0,SSE,4.6,-,N/A,,Overcast,150,2013-08-08 00:55:00
6:15 PM,53.6,53.6,100,30.12,1.2,SSE,3.5,-,N/A,,Overcast,150,2013-08-08 01:15:00
6:35 PM,53.6,53.6,100,30.11,1.8,Calm,Calm,-,N/A,,Overcast,0,2013-08-08 01:35:00
6:55 PM,53.6,53.6,100,30.11,1.0,Calm,Calm,-,N/A,,Overcast,0,2013-08-08 01:55:00
7:15 PM,53.6,53.6,100,30.12,1.0,Calm,Calm,-,N/A,,Overcast,0,2013-08-08 02:15:00
7:35 PM,53.6,53.6,100,30.11,1.0,Calm,Calm,-,N/A,,Overcast,0,2013-08-08 02:35:00
7:55 PM,53.6,53.6,100,30.11,0.5,Calm,Calm,-,N/A,Fog,Fog,0,2013-08-08 02:55:00
8:15 PM,53.6,53.6,100,30.11,0.2,Calm,Calm,-,N/A,Fog,Fog,0,2013-08-08 03:15:00
8:35 PM,53.6,53.6,100,30.11,0.2,South,3.5,-,N/A,Fog,Fog,170,2013-08-08 03:35:00
8:55 PM,53.6,53.6,100,30.11,0.8,SSW,3.5,-,N/A,,Overcast,200,2013-08-08 03:55:00
9:15 PM,53.6,53.6,100,30.11,1.2,Calm,Calm,-,N/A,,Overcast,0,2013-08-08 04:15:00
9:35 PM,53.6,53.6,100,30.11,1.2,Calm,Calm,-,N/A,,Overcast,0,2013-08-08 04:35:00
9:55 PM,53.6,53.6,100,30.11,2.0,Calm,Calm,-,N/A,,Overcast,0,2013-08-08 04:55:00
10:15 PM,53.6,53.6,100,30.12,1.8,Calm,Calm,-,N/A,,Overcast,0,2013-08-08 05:15:00
10:35 PM,53.6,53.6,100,30.11,0.8,Calm,Calm,-,N/A,,Overcast,0,2013-08-08 05:35:00
10:55 PM,53.6,53.6,100,30.11,0.8,Calm,Calm,-,N/A,,Overcast,0,2013-08-08 05:55:00
11:15 PM,53.6,53.6,100,30.10,0.5,Calm,Calm,-,N/A,Fog,Fog,0,2013-08-08 06:15:00
11:35 PM,53.6,53.6,100,30.11,0.5,Calm,Calm,-,N/A,Fog,Fog,0,2013-08-08 06:35:00
11:55 PM,53.6,53.6,100,30.11,0.5,SW,3.5,-,N/A,Fog,Fog,220,2013-08-08 06:55:00